Time;durP1;ratioP1;P1;durP2;ratioP2;P2;SDS_P1;SDS_P2;PMS_P1;PMS_P2;Temp;Humidity;BMP_temperature;BMP_pressure;BME280_temperature;BME280_humidity;BME280_pressure;Samples;Min_cycle;Max_cycle;Signal;HPM_P1;HPM_P2
2022/03/29 00:01:57;;;;;;;25.35;8.27;;;;;;;;;;5042011;28;20025;-70
2022/03/29 00:04:24;;;;;;;28.83;8.02;;;;;;;;;;5036392;28;20086;-69
2022/03/29 00:06:50;;;;;;;19.40;7.28;;;;;;;;;;5040204;28;20041;-70
2022/03/29 00:09:16;;;;;;;26.83;7.45;;;;;;;;;;5039546;28;20033;-70
2022/03/29 00:11:42;;;;;;;30.00;7.75;;;;;;;;;;5041535;28;20047;-69
2022/03/29 00:14:09;;;;;;;24.17;7.93;;;;;;;;;;5039736;28;20500;-69
2022/03/29 00:16:35;;;;;;;32.75;7.45;;;;;;;;;;5042374;28;20032;-70
2022/03/29 00:19:01;;;;;;;26.20;8.30;;;;;;;;;;5019264;28;20385;-69
2022/03/29 00:21:27;;;;;;;23.27;7.03;;;;;;;;;;5038570;28;20051;-69
2022/03/29 00:23:54;;;;;;;25.58;7.32;;;;;;;;;;5041014;28;20481;-70
2022/03/29 00:26:20;;;;;;;22.63;7.22;;;;;;;;;;5038332;28;20072;-70
2022/03/29 00:28:47;;;;;;;26.83;8.07;;;;;;;;;;5040518;28;20028;-69
2022/03/29 00:31:16;;;;;;;20.30;6.20;;;;;;;;;;5038677;28;20789;-69
2022/03/29 00:33:42;;;;;;;24.98;7.68;;;;;;;;;;5041332;28;20029;-69
2022/03/29 00:36:09;;;;;;;23.70;7.30;;;;;;;;;;5038679;28;20025;-70
2022/03/29 00:38:35;;;;;;;24.02;6.95;;;;;;;;;;5039854;28;20029;-71
2022/03/29 00:41:02;;;;;;;29.15;8.00;;;;;;;;;;5041233;28;20033;-70
2022/03/29 00:43:28;;;;;;;25.75;8.32;;;;;;;;;;5039304;28;20127;-70
2022/03/29 00:45:56;;;;;;;25.10;8.00;;;;;;;;;;5038278;28;20037;-70
2022/03/29 00:48:23;;;;;;;24.40;8.25;;;;;;;;;;5036667;28;20033;-69
2022/03/29 00:50:50;;;;;;;25.65;7.70;;;;;;;;;;5039241;28;20024;-69
2022/03/29 00:53:17;;;;;;;20.77;7.00;;;;;;;;;;5036681;28;20033;-70
2022/03/29 00:55:44;;;;;;;24.17;7.63;;;;;;;;;;5037728;28;20024;-69
2022/03/29 00:58:11;;;;;;;20.85;7.20;;;;;;;;;;5041456;28;20040;-69
2022/03/29 01:00:38;;;;;;;32.80;10.65;;;;;;;;;;5037317;28;20025;-69
2022/03/29 01:03:04;;;;;;;24.98;7.47;;;;;;;;;;5037401;28;20040;-69
2022/03/29 01:05:31;;;;;;;28.13;7.90;;;;;;;;;;5037903;28;20060;-69
2022/03/29 01:07:57;;;;;;;22.00;7.65;;;;;;;;;;5038253;28;20025;-70
2022/03/29 01:10:24;;;;;;;25.38;7.53;;;;;;;;;;5036515;28;20022;-69
2022/03/29 01:12:51;;;;;;;24.58;7.43;;;;;;;;;;5036851;28;20474;-70
2022/03/29 01:15:18;;;;;;;29.92;8.18;;;;;;;;;;5034844;28;20036;-70
2022/03/29 01:17:44;;;;;;;21.98;7.78;;;;;;;;;;5026420;28;20485;-69
2022/03/29 01:20:17;;;;;;;19.42;7.90;;;;;;;;;;5036255;28;20123;-70
2022/03/29 01:22:44;;;;;;;27.27;8.52;;;;;;;;;;5037802;28;20095;-69
2022/03/29 01:25:15;;;;;;;25.45;8.48;;;;;;;;;;5038387;28;20382;-70
2022/03/29 01:27:41;;;;;;;30.58;9.55;;;;;;;;;;5036525;28;20033;-69
2022/03/29 01:30:07;;;;;;;29.02;8.30;;;;;;;;;;5039813;28;20030;-70
2022/03/29 01:32:35;;;;;;;28.95;7.88;;;;;;;;;;5037098;28;20024;-69
2022/03/29 01:35:02;;;;;;;23.15;7.18;;;;;;;;;;5038248;28;20025;-70
2022/03/29 01:37:29;;;;;;;29.63;8.63;;;;;;;;;;5039463;28;20269;-69
2022/03/29 01:39:55;;;;;;;26.35;7.90;;;;;;;;;;5038371;28;20040;-70
2022/03/29 01:42:21;;;;;;;23.63;9.25;;;;;;;;;;5037411;28;20033;-70
2022/03/29 01:44:47;;;;;;;26.25;8.38;;;;;;;;;;5033739;28;20032;-70
2022/03/29 01:47:14;;;;;;;34.58;9.75;;;;;;;;;;5043184;28;20036;-69
2022/03/29 01:49:40;;;;;;;30.73;8.23;;;;;;;;;;5039930;28;20025;-69
2022/03/29 01:52:06;;;;;;;28.02;7.82;;;;;;;;;;5035189;28;20220;-69
2022/03/29 01:54:32;;;;;;;24.33;8.38;;;;;;;;;;5037632;28;20476;-69
2022/03/29 01:56:58;;;;;;;30.50;8.48;;;;;;;;;;5044726;28;20025;-70
2022/03/29 01:59:24;;;;;;;22.45;7.75;;;;;;;;;;5020550;28;20469;-70
2022/03/29 02:01:51;;;;;;;26.60;8.15;;;;;;;;;;5036844;28;20092;-69
2022/03/29 02:04:17;;;;;;;23.92;8.18;;;;;;;;;;5040293;28;20026;-69
2022/03/29 02:06:43;;;;;;;25.83;8.05;;;;;;;;;;5032475;28;20033;-70
2022/03/29 02:09:13;;;;;;;35.17;8.30;;;;;;;;;;5038245;28;20111;-69
2022/03/29 02:11:42;;;;;;;28.23;8.98;;;;;;;;;;5037140;28;20029;-69
2022/03/29 02:14:08;;;;;;;27.67;7.13;;;;;;;;;;5038429;28;20036;-69
2022/03/29 02:16:34;;;;;;;24.33;8.15;;;;;;;;;;5036408;28;20029;-70
2022/03/29 02:19:00;;;;;;;29.00;8.13;;;;;;;;;;5034638;28;20092;-69
2022/03/29 02:21:27;;;;;;;31.05;8.63;;;;;;;;;;5034392;28;20088;-69
2022/03/29 02:23:53;;;;;;;24.33;7.78;;;;;;;;;;5038598;28;20054;-69
2022/03/29 02:26:19;;;;;;;22.02;8.07;;;;;;;;;;5041898;28;20029;-69
2022/03/29 02:28:45;;;;;;;26.45;8.07;;;;;;;;;;5040146;28;20377;-69
2022/03/29 02:31:11;;;;;;;35.20;8.80;;;;;;;;;;5045518;28;20059;-69
2022/03/29 02:33:37;;;;;;;34.58;8.85;;;;;;;;;;5042779;28;20035;-69
2022/03/29 02:36:04;;;;;;;29.10;8.77;;;;;;;;;;5041345;28;20025;-69
2022/03/29 02:38:30;;;;;;;28.63;9.93;;;;;;;;;;5044386;28;20021;-69
2022/03/29 02:40:58;;;;;;;27.10;10.48;;;;;;;;;;5040824;28;20024;-69
2022/03/29 02:43:25;;;;;;;24.00;8.40;;;;;;;;;;5043886;28;20017;-69
2022/03/29 02:45:51;;;;;;;26.20;8.45;;;;;;;;;;5037289;28;20036;-69
2022/03/29 02:48:17;;;;;;;28.35;9.02;;;;;;;;;;5044728;28;20036;-69
2022/03/29 02:50:44;;;;;;;31.63;9.40;;;;;;;;;;5041223;28;20021;-69
2022/03/29 02:53:11;;;;;;;23.30;9.27;;;;;;;;;;5035371;28;20537;-69
2022/03/29 02:55:38;;;;;;;30.45;10.30;;;;;;;;;;5042523;28;20068;-70
2022/03/29 02:58:04;;;;;;;30.95;8.23;;;;;;;;;;5048301;28;20120;-69
2022/03/29 03:00:31;;;;;;;26.02;8.75;;;;;;;;;;5042308;28;20441;-69
2022/03/29 03:02:57;;;;;;;25.30;8.23;;;;;;;;;;5045105;28;20033;-69
2022/03/29 03:05:26;;;;;;;27.45;8.90;;;;;;;;;;5044165;28;20045;-69
2022/03/29 03:07:53;;;;;;;27.20;8.30;;;;;;;;;;5039476;28;20163;-70
2022/03/29 03:10:19;;;;;;;28.52;8.68;;;;;;;;;;5042684;28;20022;-69
2022/03/29 03:12:46;;;;;;;36.47;9.85;;;;;;;;;;5042211;28;20025;-69
2022/03/29 03:15:13;;;;;;;35.03;8.90;;;;;;;;;;5043823;28;20024;-69
2022/03/29 03:17:39;;;;;;;28.23;8.82;;;;;;;;;;5037354;28;20025;-70
2022/03/29 03:20:06;;;;;;;26.55;8.60;;;;;;;;;;5025085;28;20033;-69
2022/03/29 03:22:33;;;;;;;22.42;7.68;;;;;;;;;;5024860;28;20041;-69
2022/03/29 03:25:00;;;;;;;30.98;10.25;;;;;;;;;;5024386;28;20025;-69
2022/03/29 03:27:26;;;;;;;26.10;9.27;;;;;;;;;;5025413;28;20034;-69
2022/03/29 03:29:52;;;;;;;27.75;9.98;;;;;;;;;;5022899;28;20025;-69
2022/03/29 03:32:18;;;;;;;31.50;9.75;;;;;;;;;;5024508;28;20022;-69
2022/03/29 03:34:44;;;;;;;31.85;10.07;;;;;;;;;;5023811;28;20028;-69
2022/03/29 03:37:10;;;;;;;25.92;8.93;;;;;;;;;;5023157;28;20030;-69
2022/03/29 03:39:37;;;;;;;29.33;9.25;;;;;;;;;;5024755;28;20025;-69
2022/03/29 03:42:06;;;;;;;27.88;9.23;;;;;;;;;;5024133;28;20036;-69
2022/03/29 03:44:32;;;;;;;27.52;9.77;;;;;;;;;;5023939;28;20355;-69
2022/03/29 03:47:00;;;;;;;32.75;9.65;;;;;;;;;;5024203;28;20045;-70
2022/03/29 03:49:26;;;;;;;24.50;9.27;;;;;;;;;;5024255;28;20076;-69
2022/03/29 03:51:52;;;;;;;32.33;9.88;;;;;;;;;;5025083;28;20033;-70
2022/03/29 03:54:19;;;;;;;33.03;9.52;;;;;;;;;;5024060;28;20033;-69
2022/03/29 03:56:46;;;;;;;27.65;9.70;;;;;;;;;;5024007;28;20041;-70
2022/03/29 03:59:12;;;;;;;27.15;9.82;;;;;;;;;;5022163;28;20426;-69
2022/03/29 04:01:38;;;;;;;27.00;9.48;;;;;;;;;;5024055;28;20083;-69
2022/03/29 04:04:04;;;;;;;28.70;9.18;;;;;;;;;;5023977;28;20025;-70
2022/03/29 04:06:30;;;;;;;29.42;9.73;;;;;;;;;;5023775;28;20056;-69
2022/03/29 04:08:56;;;;;;;24.30;8.93;;;;;;;;;;5023801;28;20033;-69
2022/03/29 04:11:23;;;;;;;32.75;9.48;;;;;;;;;;5023850;28;20095;-69
2022/03/29 04:13:49;;;;;;;23.05;8.82;;;;;;;;;;5022764;28;20599;-69
2022/03/29 04:16:15;;;;;;;24.98;8.82;;;;;;;;;;5023834;28;20111;-69
2022/03/29 04:18:41;;;;;;;23.30;8.82;;;;;;;;;;5023768;28;20040;-69
2022/03/29 04:21:11;;;;;;;27.13;8.52;;;;;;;;;;5023530;28;20037;-69
2022/03/29 04:23:37;;;;;;;30.70;8.48;;;;;;;;;;5021771;28;20392;-69
2022/03/29 04:26:05;;;;;;;21.45;8.15;;;;;;;;;;5023639;28;20029;-69
2022/03/29 04:28:32;;;;;;;24.40;8.32;;;;;;;;;;5023847;28;20108;-69
2022/03/29 04:30:59;;;;;;;21.08;8.57;;;;;;;;;;5023552;28;20018;-69
2022/03/29 04:33:29;;;;;;;26.50;8.77;;;;;;;;;;5021842;28;20040;-69
2022/03/29 04:35:56;;;;;;;28.65;9.32;;;;;;;;;;5023405;28;20025;-69
2022/03/29 04:38:23;;;;;;;35.20;8.73;;;;;;;;;;5023750;28;20778;-69
2022/03/29 04:40:50;;;;;;;38.60;9.90;;;;;;;;;;5023751;28;20052;-69
2022/03/29 04:43:16;;;;;;;33.40;10.75;;;;;;;;;;5023335;28;20033;-69
2022/03/29 04:45:42;;;;;;;26.02;9.38;;;;;;;;;;5021522;28;20029;-69
2022/03/29 04:48:09;;;;;;;30.75;8.95;;;;;;;;;;5033398;28;20095;-71
2022/03/29 04:50:36;;;;;;;33.10;9.85;;;;;;;;;;5039965;28;20048;-70
2022/03/29 04:53:02;;;;;;;28.95;9.52;;;;;;;;;;5035011;28;20033;-70
2022/03/29 04:55:28;;;;;;;30.83;9.48;;;;;;;;;;5041963;28;20025;-70
2022/03/29 04:57:54;;;;;;;23.65;9.60;;;;;;;;;;5040789;28;20029;-70
2022/03/29 05:00:21;;;;;;;29.83;8.38;;;;;;;;;;5041624;28;20017;-70
2022/03/29 05:02:47;;;;;;;37.28;8.38;;;;;;;;;;5042362;28;20036;-70
2022/03/29 05:05:14;;;;;;;41.47;10.02;;;;;;;;;;5042617;28;20041;-69
2022/03/29 05:07:43;;;;;;;30.17;8.88;;;;;;;;;;5039656;28;20131;-70
2022/03/29 05:10:09;;;;;;;31.45;9.88;;;;;;;;;;5040985;28;20017;-70
2022/03/29 05:12:42;;;;;;;38.95;10.00;;;;;;;;;;5040893;28;20389;-70
2022/03/29 05:15:09;;;;;;;25.48;9.07;;;;;;;;;;5041286;28;20025;-69
2022/03/29 05:17:35;;;;;;;31.58;9.20;;;;;;;;;;5040123;28;20052;-69
2022/03/29 05:20:05;;;;;;;32.70;9.90;;;;;;;;;;5041272;28;20059;-69
2022/03/29 05:22:31;;;;;;;28.90;9.52;;;;;;;;;;5042540;28;20033;-69
2022/03/29 05:24:58;;;;;;;33.55;10.70;;;;;;;;;;5042579;28;20024;-69
2022/03/29 05:27:24;;;;;;;25.00;10.43;;;;;;;;;;5042758;28;20044;-69
2022/03/29 05:29:50;;;;;;;35.10;11.65;;;;;;;;;;5042770;28;20082;-69
2022/03/29 05:32:18;;;;;;;30.92;11.43;;;;;;;;;;5040798;28;20396;-69
2022/03/29 05:34:47;;;;;;;36.50;11.25;;;;;;;;;;5042252;28;20021;-69
2022/03/29 05:37:14;;;;;;;35.97;12.10;;;;;;;;;;5041808;28;20499;-69
2022/03/29 05:39:41;;;;;;;41.97;11.27;;;;;;;;;;5042285;28;20055;-70
2022/03/29 05:42:09;;;;;;;30.05;10.77;;;;;;;;;;5040800;28;20728;-69
2022/03/29 05:44:37;;;;;;;38.63;10.70;;;;;;;;;;5042000;28;20623;-69
2022/03/29 05:49:48;;;;;;;32.10;12.40;;;;;;;;;;5042376;28;20072;-69
2022/03/29 05:52:14;;;;;;;37.47;11.95;;;;;;;;;;5040735;28;20017;-69
2022/03/29 05:54:41;;;;;;;34.72;11.65;;;;;;;;;;5041729;28;20025;-69
2022/03/29 05:57:08;;;;;;;37.13;12.20;;;;;;;;;;5042297;28;20090;-70
2022/03/29 05:59:34;;;;;;;33.10;12.23;;;;;;;;;;5046289;28;20025;-69
2022/03/29 06:02:04;;;;;;;31.80;11.35;;;;;;;;;;5046157;28;20433;-69
2022/03/29 06:04:34;;;;;;;48.45;12.70;;;;;;;;;;5044479;28;20029;-69
2022/03/29 06:07:00;;;;;;;37.00;14.27;;;;;;;;;;5045626;28;20622;-69
2022/03/29 06:09:26;;;;;;;53.88;13.02;;;;;;;;;;5046626;28;20068;-69
2022/03/29 06:11:52;;;;;;;41.60;12.73;;;;;;;;;;5046607;28;20017;-69
2022/03/29 06:14:20;;;;;;;41.72;12.23;;;;;;;;;;5044879;28;20075;-72
2022/03/29 06:16:46;;;;;;;41.50;12.50;;;;;;;;;;5045874;28;20025;-69
2022/03/29 06:19:12;;;;;;;30.40;11.77;;;;;;;;;;5045598;28;20025;-69
2022/03/29 06:21:39;;;;;;;40.83;12.70;;;;;;;;;;5045387;28;20024;-69
2022/03/29 06:24:05;;;;;;;34.70;12.30;;;;;;;;;;5044291;28;20033;-69
2022/03/29 06:26:32;;;;;;;38.28;13.13;;;;;;;;;;5046856;28;20481;-69
2022/03/29 06:28:58;;;;;;;43.30;11.40;;;;;;;;;;5045527;28;20040;-69
2022/03/29 06:31:24;;;;;;;39.00;13.80;;;;;;;;;;5045697;28;20031;-69
2022/03/29 06:33:51;;;;;;;33.90;12.43;;;;;;;;;;5045935;28;20055;-69
2022/03/29 06:36:17;;;;;;;25.73;11.85;;;;;;;;;;5044156;28;20024;-70
2022/03/29 06:38:44;;;;;;;38.75;11.82;;;;;;;;;;5044908;28;20033;-69
2022/03/29 06:41:13;;;;;;;31.55;11.20;;;;;;;;;;5045354;28;20557;-69
2022/03/29 06:43:40;;;;;;;43.17;14.18;;;;;;;;;;5045429;28;20036;-69
2022/03/29 06:46:08;;;;;;;28.45;11.35;;;;;;;;;;5043799;28;20091;-69
2022/03/29 06:48:35;;;;;;;28.10;10.82;;;;;;;;;;5045278;28;20033;-69
2022/03/29 06:51:01;;;;;;;35.90;10.00;;;;;;;;;;5045862;28;20029;-69
2022/03/29 06:53:28;;;;;;;34.58;9.90;;;;;;;;;;5045119;28;20037;-69
2022/03/29 06:55:54;;;;;;;35.88;11.13;;;;;;;;;;5043798;28;20300;-69
2022/03/29 06:58:20;;;;;;;25.70;10.25;;;;;;;;;;5044982;28;20197;-69
2022/03/29 07:00:47;;;;;;;39.90;10.68;;;;;;;;;;5045407;28;20028;-69
2022/03/29 07:03:13;;;;;;;27.58;10.63;;;;;;;;;;5045407;28;20021;-69
2022/03/29 07:05:42;;;;;;;27.48;9.68;;;;;;;;;;5044878;28;20052;-70
2022/03/29 07:08:12;;;;;;;29.75;9.75;;;;;;;;;;5043373;28;20105;-70
2022/03/29 07:13:23;;;;;;;33.28;10.35;;;;;;;;;;5044784;28;20428;-69
2022/03/29 07:15:50;;;;;;;40.75;13.07;;;;;;;;;;5045115;28;20088;-70
2022/03/29 07:18:16;;;;;;;26.88;10.80;;;;;;;;;;5044473;28;20031;-69
2022/03/29 07:20:42;;;;;;;28.58;11.15;;;;;;;;;;5043079;28;20497;-70
2022/03/29 07:23:08;;;;;;;30.08;10.65;;;;;;;;;;5043602;28;20428;-69
2022/03/29 07:25:34;;;;;;;34.20;12.10;;;;;;;;;;5044877;28;20032;-69
2022/03/29 07:28:01;;;;;;;36.67;11.50;;;;;;;;;;5044418;28;20520;-69
2022/03/29 07:30:28;;;;;;;30.85;12.00;;;;;;;;;;5044469;28;20063;-69
2022/03/29 07:32:57;;;;;;;35.38;11.82;;;;;;;;;;5042988;28;20192;-69
2022/03/29 07:35:25;;;;;;;32.35;14.20;;;;;;;;;;5044369;28;20484;-69
2022/03/29 07:37:51;;;;;;;36.25;14.40;;;;;;;;;;5044452;28;20025;-70
2022/03/29 07:40:19;;;;;;;30.95;13.02;;;;;;;;;;5044126;28;20065;-69
2022/03/29 07:42:45;;;;;;;41.40;14.75;;;;;;;;;;5044232;28;20025;-69
2022/03/29 07:45:12;;;;;;;29.55;13.82;;;;;;;;;;5042374;28;20109;-70
2022/03/29 07:47:38;;;;;;;35.85;12.60;;;;;;;;;;5044561;28;20052;-69
2022/03/29 07:50:07;;;;;;;32.13;12.57;;;;;;;;;;5044115;28;20095;-70
2022/03/29 07:52:37;;;;;;;40.63;13.57;;;;;;;;;;5044004;28;20025;-69
2022/03/29 07:55:04;;;;;;;28.63;11.95;;;;;;;;;;5044355;28;20025;-70
2022/03/29 07:57:30;;;;;;;36.72;12.27;;;;;;;;;;5042658;28;20034;-69
2022/03/29 07:59:56;;;;;;;31.52;12.43;;;;;;;;;;5043989;28;20021;-70
2022/03/29 08:02:22;;;;;;;32.67;12.88;;;;;;;;;;5043995;28;20024;-72
2022/03/29 08:04:49;;;;;;;34.95;12.45;;;;;;;;;;5044139;28;20053;-70
2022/03/29 08:07:15;;;;;;;27.02;11.88;;;;;;;;;;5043975;28;20033;-70
2022/03/29 08:09:41;;;;;;;36.25;12.52;;;;;;;;;;5043926;28;20032;-70
2022/03/29 08:12:07;;;;;;;37.15;12.75;;;;;;;;;;5042292;28;20112;-70
2022/03/29 08:14:33;;;;;;;32.65;12.80;;;;;;;;;;5043678;28;20021;-70
2022/03/29 08:17:00;;;;;;;38.67;14.20;;;;;;;;;;5043319;28;20079;-70
2022/03/29 08:19:27;;;;;;;36.83;13.63;;;;;;;;;;5043795;28;20484;-69
2022/03/29 08:21:53;;;;;;;28.10;12.43;;;;;;;;;;5042807;28;20070;-69
2022/03/29 08:24:19;;;;;;;41.05;14.98;;;;;;;;;;5042412;28;20393;-69
2022/03/29 08:26:46;;;;;;;33.45;13.80;;;;;;;;;;5043277;28;20021;-70
2022/03/29 08:29:12;;;;;;;33.67;13.30;;;;;;;;;;5043275;28;20095;-70
2022/03/29 08:31:40;;;;;;;40.05;13.80;;;;;;;;;;5043302;28;20074;-70
2022/03/29 08:34:07;;;;;;;36.58;13.90;;;;;;;;;;5043496;28;20040;-70
2022/03/29 08:36:34;;;;;;;40.13;13.95;;;;;;;;;;5043642;28;20025;-70
2022/03/29 08:39:02;;;;;;;29.45;11.73;;;;;;;;;;5042909;28;20025;-69
2022/03/29 08:41:30;;;;;;;29.88;12.48;;;;;;;;;;5041744;28;20178;-70
2022/03/29 08:43:57;;;;;;;31.90;12.95;;;;;;;;;;5043015;28;20025;-69
2022/03/29 08:46:23;;;;;;;40.95;12.73;;;;;;;;;;5043471;28;20040;-70
2022/03/29 08:48:50;;;;;;;35.13;12.60;;;;;;;;;;5041378;28;20063;-70
2022/03/29 08:51:17;;;;;;;29.42;12.70;;;;;;;;;;5043425;28;20021;-70
2022/03/29 08:53:46;;;;;;;27.13;12.52;;;;;;;;;;5042892;28;20681;-70
2022/03/29 08:56:12;;;;;;;38.97;13.75;;;;;;;;;;5043247;28;20112;-69
2022/03/29 08:58:38;;;;;;;28.73;11.65;;;;;;;;;;5042722;28;20028;-70
2022/03/29 09:01:05;;;;;;;31.27;12.30;;;;;;;;;;5041410;28;20025;-70
2022/03/29 09:03:31;;;;;;;27.73;11.65;;;;;;;;;;5043257;28;20059;-69
2022/03/29 09:06:10;;;;;;;29.10;12.10;;;;;;;;;;5042889;28;20044;-70
2022/03/29 09:08:43;;;;;;;31.95;12.55;;;;;;;;;;5042531;28;20040;-70
2022/03/29 09:11:09;;;;;;;30.42;11.02;;;;;;;;;;5041494;28;20466;-69
2022/03/29 09:13:35;;;;;;;29.25;11.63;;;;;;;;;;5042527;28;20033;-70
2022/03/29 09:16:03;;;;;;;27.73;10.77;;;;;;;;;;5042575;28;20048;-70
2022/03/29 09:18:31;;;;;;;33.75;11.00;;;;;;;;;;5041155;28;20025;-70
2022/03/29 09:21:07;;;;;;;29.23;10.85;;;;;;;;;;5042449;28;20021;-69
2022/03/29 09:23:34;;;;;;;33.97;10.40;;;;;;;;;;5039058;28;20047;-71
2022/03/29 09:26:01;;;;;;;28.42;11.23;;;;;;;;;;5042267;28;20089;-70
2022/03/29 09:28:33;;;;;;;22.60;10.00;;;;;;;;;;5042149;28;20068;-70
2022/03/29 09:30:59;;;;;;;;;;;;;;;;;;5041512;28;20036;-70
2022/03/29 09:33:32;;;;;;;28.25;10.02;;;;;;;;;;5041368;28;19911;-70
2022/03/29 09:36:00;;;;;;;42.28;10.13;;;;;;;;;;5042278;28;20637;-70
2022/03/29 09:38:30;;;;;;;30.02;10.45;;;;;;;;;;5042132;28;20029;-70
2022/03/29 09:40:57;;;;;;;36.80;11.20;;;;;;;;;;5042242;28;20035;-69
2022/03/29 09:43:24;;;;;;;33.20;11.55;;;;;;;;;;5040647;28;20104;-70
2022/03/29 09:45:51;;;;;;;29.85;10.15;;;;;;;;;;5041906;28;20061;-70
2022/03/29 09:48:21;;;;;;;29.38;9.68;;;;;;;;;;5041774;28;20044;-70
2022/03/29 09:50:48;;;;;;;32.13;10.25;;;;;;;;;;5024483;28;20191;-70
2022/03/29 09:53:33;;;;;;;29.05;10.52;;;;;;;;;;5040843;28;20466;-70
2022/03/29 09:55:59;;;;;;;32.85;9.20;;;;;;;;;;5042474;28;20033;-70
2022/03/29 09:58:26;;;;;;;22.83;9.13;;;;;;;;;;5041669;28;20029;-70
2022/03/29 10:00:52;;;;;;;29.05;10.15;;;;;;;;;;5024354;28;20064;-70
2022/03/29 10:03:18;;;;;;;35.03;10.90;;;;;;;;;;5040630;28;20082;-70
2022/03/29 10:05:47;;;;;;;29.83;9.90;;;;;;;;;;5042019;28;20567;-70
2022/03/29 10:11:01;;;;;;;37.08;10.00;;;;;;;;;;5042225;28;20044;-70
2022/03/29 10:13:29;;;;;;;32.63;9.63;;;;;;;;;;5041828;28;20032;-70
2022/03/29 10:15:56;;;;;;;32.65;9.80;;;;;;;;;;5040602;28;20128;-70
2022/03/29 10:18:22;;;;;;;29.00;10.68;;;;;;;;;;5042048;28;20040;-70
2022/03/29 10:20:49;;;;;;;27.30;9.75;;;;;;;;;;5042209;28;20104;-70
2022/03/29 10:23:18;;;;;;;32.58;9.77;;;;;;;;;;5041575;28;20029;-70
2022/03/29 10:25:44;;;;;;;32.95;10.23;;;;;;;;;;5042093;28;20051;-70
2022/03/29 10:28:11;;;;;;;26.60;9.45;;;;;;;;;;5039956;28;20033;-70
2022/03/29 10:30:39;;;;;;;28.38;9.77;;;;;;;;;;5041988;28;20071;-70
2022/03/29 10:33:24;;;;;;;28.17;9.40;;;;;;;;;;5041755;28;20037;-70
2022/03/29 10:35:59;;;;;;;28.83;10.05;;;;;;;;;;5041603;28;20021;-70
2022/03/29 10:38:44;;;;;;;32.08;9.32;;;;;;;;;;5035683;28;20052;-70
2022/03/29 10:41:28;;;;;;;33.20;9.57;;;;;;;;;;5041221;28;20055;-71
2022/03/29 10:43:55;;;;;;;25.88;8.65;;;;;;;;;;5040364;28;20040;-70
2022/03/29 10:46:23;;;;;;;25.23;8.38;;;;;;;;;;5045181;28;20017;-70
2022/03/29 10:49:08;;;;;;;34.75;9.13;;;;;;;;;;5044887;28;20037;-70
2022/03/29 10:51:34;;;;;;;25.75;8.48;;;;;;;;;;5045716;28;20532;-73
2022/03/29 10:54:19;;;;;;;26.85;8.25;;;;;;;;;;5043403;28;20028;-70
2022/03/29 10:57:04;;;;;;;23.27;9.07;;;;;;;;;;5044975;28;20025;-70
2022/03/29 10:59:31;;;;;;;23.90;8.30;;;;;;;;;;5044760;28;20120;-71
2022/03/29 11:02:08;;;;;;;31.63;8.45;;;;;;;;;;5043424;28;20048;-70
2022/03/29 11:04:34;;;;;;;28.42;8.68;;;;;;;;;;5044974;28;20025;-70
2022/03/29 11:07:04;;;;;;;32.63;9.10;;;;;;;;;;5044404;28;20559;-70
2022/03/29 11:09:30;;;;;;;31.75;8.85;;;;;;;;;;5044773;28;20539;-70
2022/03/29 11:11:56;;;;;;;42.65;9.35;;;;;;;;;;5043563;28;20380;-70
2022/03/29 11:14:39;;;;;;;25.63;7.60;;;;;;;;;;5045288;28;20017;-70
2022/03/29 11:17:05;;;;;;;28.25;8.30;;;;;;;;;;5044603;28;20556;-70
2022/03/29 11:19:50;;;;;;;22.20;8.05;;;;;;;;;;5044410;28;20025;-70
2022/03/29 11:22:34;;;;;;;28.88;8.65;;;;;;;;;;5044922;28;20029;-70
2022/03/29 11:25:00;;;;;;;27.83;8.73;;;;;;;;;;5043037;28;20052;-70
2022/03/29 11:27:31;;;;;;;36.92;9.77;;;;;;;;;;5044599;28;20033;-70
2022/03/29 11:29:58;;;;;;;36.00;10.10;;;;;;;;;;5044853;28;21151;-70
2022/03/29 11:32:24;;;;;;;31.17;9.23;;;;;;;;;;5044908;28;20021;-70
2022/03/29 11:34:57;;;;;;;23.27;7.95;;;;;;;;;;5044761;28;20037;-70
2022/03/29 11:37:27;;;;;;;35.13;8.43;;;;;;;;;;5042847;28;20025;-70
2022/03/29 11:39:53;;;;;;;23.98;7.28;;;;;;;;;;5044382;28;20140;-70
2022/03/29 11:42:19;;;;;;;33.65;8.52;;;;;;;;;;5044395;28;20017;-70
2022/03/29 11:44:49;;;;;;;27.30;8.55;;;;;;;;;;5044856;28;20674;-70
2022/03/29 11:47:15;;;;;;;24.55;8.13;;;;;;;;;;5044444;28;20052;-73
2022/03/29 11:49:42;;;;;;;26.50;7.68;;;;;;;;;;5043836;28;20025;-69
2022/03/29 11:52:12;;;;;;;29.58;9.45;;;;;;;;;;5043062;28;20556;-69
2022/03/29 11:54:43;;;;;;;35.90;9.15;;;;;;;;;;5044398;28;20032;-69
2022/03/29 11:57:15;;;;;;;35.42;8.90;;;;;;;;;;5043757;28;20437;-70
2022/03/29 11:59:42;;;;;;;29.98;9.05;;;;;;;;;;5044095;28;20029;-69
2022/03/29 12:02:09;;;;;;;35.25;9.23;;;;;;;;;;5026483;28;20024;-69
2022/03/29 12:04:37;;;;;;;30.08;8.70;;;;;;;;;;5042258;28;20021;-69
2022/03/29 12:07:03;;;;;;;27.67;9.02;;;;;;;;;;5043666;28;20033;-69
2022/03/29 12:09:31;;;;;;;32.78;8.50;;;;;;;;;;5043309;28;20531;-71
2022/03/29 12:12:00;;;;;;;26.75;9.32;;;;;;;;;;5043811;28;20027;-69
2022/03/29 12:14:27;;;;;;;31.00;9.10;;;;;;;;;;5042378;28;20032;-69
2022/03/29 12:16:54;;;;;;;27.30;8.68;;;;;;;;;;5043984;28;20029;-70
2022/03/29 12:19:25;;;;;;;28.33;8.52;;;;;;;;;;5043818;28;20028;-71
2022/03/29 12:21:53;;;;;;;31.08;8.63;;;;;;;;;;5043601;28;20024;-69
2022/03/29 12:24:19;;;;;;;22.27;8.23;;;;;;;;;;5044108;28;20024;-70
2022/03/29 12:26:47;;;;;;;29.35;8.05;;;;;;;;;;5041984;28;20048;-69
2022/03/29 12:29:14;;;;;;;19.50;7.53;;;;;;;;;;5043252;28;20025;-69
2022/03/29 12:31:41;;;;;;;32.20;9.15;;;;;;;;;;5043061;28;20052;-69
2022/03/29 12:34:08;;;;;;;28.92;8.55;;;;;;;;;;5043246;28;20017;-69
2022/03/29 12:36:38;;;;;;;32.78;8.30;;;;;;;;;;5043406;28;20028;-68
2022/03/29 12:39:06;;;;;;;24.88;8.75;;;;;;;;;;5043124;28;20132;-69
2022/03/29 12:41:37;;;;;;;29.65;8.13;;;;;;;;;;5043509;28;20013;-70
2022/03/29 12:44:03;;;;;;;;;;;;;;;;;;5043859;28;20029;-69
2022/03/29 12:46:30;;;;;;;36.15;9.25;;;;;;;;;;5043307;28;19968;-70
2022/03/29 12:48:57;;;;;;;57.13;10.13;;;;;;;;;;5023417;28;20433;-69
2022/03/29 12:51:30;;;;;;;32.28;8.13;;;;;;;;;;5043161;28;20017;-69
2022/03/29 12:53:57;;;;;;;24.00;8.43;;;;;;;;;;5042860;28;20060;-69
2022/03/29 12:56:30;;;;;;;32.28;10.43;;;;;;;;;;5042913;28;20227;-69
2022/03/29 12:58:56;;;;;;;30.83;8.32;;;;;;;;;;5043248;28;20570;-70
2022/03/29 13:01:30;;;;;;;34.30;10.13;;;;;;;;;;5024627;28;20633;-69
2022/03/29 13:04:06;;;;;;;31.38;8.10;;;;;;;;;;5041477;28;20025;-69
2022/03/29 13:06:42;;;;;;;28.00;8.15;;;;;;;;;;5042473;28;20043;-69
2022/03/29 13:09:11;;;;;;;35.35;8.82;;;;;;;;;;5042341;28;20700;-70
2022/03/29 13:11:38;;;;;;;31.77;8.77;;;;;;;;;;5042522;28;20033;-69
2022/03/29 13:14:07;;;;;;;22.58;8.10;;;;;;;;;;5040765;28;20025;-69
2022/03/29 13:16:33;;;;;;;30.73;9.18;;;;;;;;;;5042474;28;20017;-69
2022/03/29 13:19:00;;;;;;;34.03;9.65;;;;;;;;;;5042613;28;20025;-69
2022/03/29 13:21:27;;;;;;;28.73;8.90;;;;;;;;;;5042574;28;20025;-69
2022/03/29 13:23:55;;;;;;;25.10;7.38;;;;;;;;;;5041357;28;20021;-69
2022/03/29 13:26:25;;;;;;;32.83;8.85;;;;;;;;;;5042496;28;20024;-69
2022/03/29 13:28:52;;;;;;;26.65;8.07;;;;;;;;;;5042063;28;20064;-69
2022/03/29 13:31:19;;;;;;;31.40;10.60;;;;;;;;;;5042054;28;20595;-69
2022/03/29 13:33:49;;;;;;;40.15;9.00;;;;;;;;;;5042494;28;20032;-69
2022/03/29 13:36:17;;;;;;;26.17;8.45;;;;;;;;;;5042327;28;20575;-69
2022/03/29 13:38:43;;;;;;;33.35;8.32;;;;;;;;;;5040835;28;20033;-69
2022/03/29 13:41:10;;;;;;;26.38;8.32;;;;;;;;;;5042048;28;20393;-69
2022/03/29 13:43:37;;;;;;;34.03;9.50;;;;;;;;;;5042362;28;20615;-69
2022/03/29 13:46:03;;;;;;;27.73;8.50;;;;;;;;;;5042444;28;20044;-69
2022/03/29 13:48:30;;;;;;;33.28;8.75;;;;;;;;;;5040824;28;20040;-69
2022/03/29 13:50:57;;;;;;;29.45;8.70;;;;;;;;;;5041938;28;20071;-69
2022/03/29 13:53:23;;;;;;;24.73;8.25;;;;;;;;;;5042273;28;20036;-69
2022/03/29 13:55:50;;;;;;;33.35;10.02;;;;;;;;;;5040280;28;20021;-69
2022/03/29 13:58:16;;;;;;;32.03;8.90;;;;;;;;;;5041881;28;20036;-69
2022/03/29 14:00:42;;;;;;;33.08;9.27;;;;;;;;;;5042332;28;20017;-69
2022/03/29 14:03:09;;;;;;;28.80;9.05;;;;;;;;;;5042211;28;20578;-70
2022/03/29 14:05:42;;;;;;;30.15;8.40;;;;;;;;;;5040804;28;20072;-70
2022/03/29 14:08:08;;;;;;;30.98;8.90;;;;;;;;;;5023789;28;20051;-73
2022/03/29 14:10:35;;;;;;;31.00;8.25;;;;;;;;;;5042287;28;20055;-69
2022/03/29 14:13:02;;;;;;;25.73;8.75;;;;;;;;;;5041912;28;20029;-70
2022/03/29 14:15:31;;;;;;;27.15;9.00;;;;;;;;;;5041899;28;20662;-69
2022/03/29 14:17:57;;;;;;;28.55;9.60;;;;;;;;;;5041954;28;20442;-69
2022/03/29 14:20:24;;;;;;;21.55;9.05;;;;;;;;;;5042797;28;20021;-69
2022/03/29 14:22:51;;;;;;;41.85;9.30;;;;;;;;;;5045695;28;20025;-69
2022/03/29 14:25:17;;;;;;;28.52;8.60;;;;;;;;;;5045880;28;20195;-70
2022/03/29 14:27:44;;;;;;;38.63;9.15;;;;;;;;;;5045427;28;20037;-69
2022/03/29 14:30:14;;;;;;;36.08;9.88;;;;;;;;;;5045461;28;20020;-69
2022/03/29 14:32:40;;;;;;;26.23;8.40;;;;;;;;;;5044638;28;20033;-69
2022/03/29 14:35:07;;;;;;;34.30;10.18;;;;;;;;;;5045808;28;20354;-70
2022/03/29 14:37:34;;;;;;;27.23;8.93;;;;;;;;;;5045188;28;20029;-72